sensor_id;sensor_type;location;lat;lon;timestamp;P1;durP1;ratioP1;P2;durP2;ratioP2
41881;SDS011;27562;47.524;12.404;2024-01-25T00:01:33;5.90;;;3.78;;
41881;SDS011;27562;47.524;12.404;2024-01-25T00:03:59;7.13;;;4.07;;
41881;SDS011;27562;47.524;12.404;2024-01-25T00:06:24;7.00;;;3.28;;
41881;SDS011;27562;47.524;12.404;2024-01-25T00:08:50;7.70;;;3.60;;
41881;SDS011;27562;47.524;12.404;2024-01-25T00:11:16;8.63;;;4.45;;
41881;SDS011;27562;47.524;12.404;2024-01-25T00:13:42;4.20;;;2.60;;
41881;SDS011;27562;47.524;12.404;2024-01-25T00:16:07;3.63;;;2.17;;
41881;SDS011;27562;47.524;12.404;2024-01-25T00:18:33;3.97;;;2.05;;
41881;SDS011;27562;47.524;12.404;2024-01-25T00:20:59;3.25;;;2.00;;
41881;SDS011;27562;47.524;12.404;2024-01-25T00:23:24;6.05;;;2.53;;
41881;SDS011;27562;47.524;12.404;2024-01-25T00:25:50;5.43;;;2.28;;
41881;SDS011;27562;47.524;12.404;2024-01-25T00:28:16;4.55;;;2.25;;
41881;SDS011;27562;47.524;12.404;2024-01-25T00:30:42;4.15;;;2.30;;
41881;SDS011;27562;47.524;12.404;2024-01-25T00:33:07;3.15;;;1.92;;
41881;SDS011;27562;47.524;12.404;2024-01-25T00:35:33;3.65;;;2.28;;
41881;SDS011;27562;47.524;12.404;2024-01-25T00:37:59;7.22;;;2.75;;
41881;SDS011;27562;47.524;12.404;2024-01-25T00:40:25;4.10;;;2.45;;
41881;SDS011;27562;47.524;12.404;2024-01-25T00:42:51;8.02;;;3.08;;
41881;SDS011;27562;47.524;12.404;2024-01-25T00:45:21;7.95;;;3.50;;
41881;SDS011;27562;47.524;12.404;2024-01-25T00:47:48;4.50;;;2.55;;
41881;SDS011;27562;47.524;12.404;2024-01-25T00:50:15;5.85;;;2.83;;
41881;SDS011;27562;47.524;12.404;2024-01-25T00:52:46;4.78;;;2.75;;
41881;SDS011;27562;47.524;12.404;2024-01-25T00:55:14;5.70;;;2.95;;
41881;SDS011;27562;47.524;12.404;2024-01-25T00:57:40;4.68;;;2.90;;
41881;SDS011;27562;47.524;12.404;2024-01-25T01:00:06;6.47;;;2.97;;
41881;SDS011;27562;47.524;12.404;2024-01-25T01:02:35;6.20;;;3.08;;
41881;SDS011;27562;47.524;12.404;2024-01-25T01:05:03;4.50;;;2.90;;
41881;SDS011;27562;47.524;12.404;2024-01-25T01:07:30;4.50;;;2.78;;
41881;SDS011;27562;47.524;12.404;2024-01-25T01:09:55;6.65;;;2.60;;
41881;SDS011;27562;47.524;12.404;2024-01-25T01:12:21;3.97;;;2.80;;
41881;SDS011;27562;47.524;12.404;2024-01-25T01:14:47;5.03;;;2.83;;
41881;SDS011;27562;47.524;12.404;2024-01-25T01:17:13;5.38;;;2.92;;
41881;SDS011;27562;47.524;12.404;2024-01-25T01:19:39;5.43;;;3.10;;
41881;SDS011;27562;47.524;12.404;2024-01-25T01:22:04;6.20;;;2.80;;
41881;SDS011;27562;47.524;12.404;2024-01-25T01:24:30;5.05;;;2.38;;
41881;SDS011;27562;47.524;12.404;2024-01-25T01:26:56;4.68;;;2.00;;
41881;SDS011;27562;47.524;12.404;2024-01-25T01:29:21;4.75;;;2.72;;
41881;SDS011;27562;47.524;12.404;2024-01-25T01:31:47;4.00;;;2.30;;
41881;SDS011;27562;47.524;12.404;2024-01-25T01:34:12;4.93;;;1.90;;
41881;SDS011;27562;47.524;12.404;2024-01-25T01:36:38;3.97;;;2.00;;
41881;SDS011;27562;47.524;12.404;2024-01-25T01:39:04;4.85;;;1.92;;
41881;SDS011;27562;47.524;12.404;2024-01-25T01:41:31;5.25;;;2.38;;
41881;SDS011;27562;47.524;12.404;2024-01-25T01:43:57;6.60;;;2.50;;
41881;SDS011;27562;47.524;12.404;2024-01-25T01:49:02;3.05;;;1.70;;
41881;SDS011;27562;47.524;12.404;2024-01-25T01:51:28;3.38;;;1.90;;
41881;SDS011;27562;47.524;12.404;2024-01-25T01:53:56;4.60;;;1.92;;
41881;SDS011;27562;47.524;12.404;2024-01-25T01:56:24;6.93;;;2.67;;
41881;SDS011;27562;47.524;12.404;2024-01-25T01:58:51;4.18;;;1.60;;
41881;SDS011;27562;47.524;12.404;2024-01-25T02:01:18;2.58;;;1.27;;
41881;SDS011;27562;47.524;12.404;2024-01-25T02:03:45;4.50;;;1.15;;
41881;SDS011;27562;47.524;12.404;2024-01-25T02:06:11;3.53;;;1.13;;
41881;SDS011;27562;47.524;12.404;2024-01-25T02:08:37;1.60;;;0.98;;
41881;SDS011;27562;47.524;12.404;2024-01-25T02:11:03;3.42;;;1.27;;
41881;SDS011;27562;47.524;12.404;2024-01-25T02:13:29;2.47;;;1.10;;
41881;SDS011;27562;47.524;12.404;2024-01-25T02:15:54;3.85;;;1.90;;
41881;SDS011;27562;47.524;12.404;2024-01-25T02:18:20;5.95;;;1.85;;
41881;SDS011;27562;47.524;12.404;2024-01-25T02:20:46;4.78;;;1.88;;
41881;SDS011;27562;47.524;12.404;2024-01-25T02:23:12;4.95;;;2.13;;
41881;SDS011;27562;47.524;12.404;2024-01-25T02:25:37;3.90;;;1.40;;
41881;SDS011;27562;47.524;12.404;2024-01-25T02:28:03;1.75;;;0.90;;
41881;SDS011;27562;47.524;12.404;2024-01-25T02:30:29;1.92;;;0.70;;
41881;SDS011;27562;47.524;12.404;2024-01-25T02:32:55;2.97;;;0.70;;
41881;SDS011;27562;47.524;12.404;2024-01-25T02:35:20;1.10;;;0.60;;
41881;SDS011;27562;47.524;12.404;2024-01-25T02:37:46;2.15;;;1.00;;
41881;SDS011;27562;47.524;12.404;2024-01-25T02:40:12;3.13;;;0.93;;
41881;SDS011;27562;47.524;12.404;2024-01-25T02:42:38;3.80;;;1.30;;
41881;SDS011;27562;47.524;12.404;2024-01-25T02:45:04;4.03;;;2.10;;
41881;SDS011;27562;47.524;12.404;2024-01-25T02:47:30;6.90;;;2.25;;
41881;SDS011;27562;47.524;12.404;2024-01-25T02:49:55;4.07;;;1.90;;
41881;SDS011;27562;47.524;12.404;2024-01-25T02:52:21;3.22;;;1.85;;
41881;SDS011;27562;47.524;12.404;2024-01-25T02:54:46;4.85;;;1.92;;
41881;SDS011;27562;47.524;12.404;2024-01-25T02:57:12;3.90;;;1.80;;
41881;SDS011;27562;47.524;12.404;2024-01-25T02:59:38;5.53;;;1.80;;
41881;SDS011;27562;47.524;12.404;2024-01-25T03:02:03;1.67;;;0.90;;
41881;SDS011;27562;47.524;12.404;2024-01-25T03:04:29;3.28;;;1.10;;
41881;SDS011;27562;47.524;12.404;2024-01-25T03:06:55;4.38;;;1.33;;
41881;SDS011;27562;47.524;12.404;2024-01-25T03:09:20;3.33;;;1.10;;
41881;SDS011;27562;47.524;12.404;2024-01-25T03:11:48;3.17;;;1.20;;
41881;SDS011;27562;47.524;12.404;2024-01-25T03:14:14;3.45;;;1.00;;
41881;SDS011;27562;47.524;12.404;2024-01-25T03:16:40;3.78;;;1.20;;
41881;SDS011;27562;47.524;12.404;2024-01-25T03:19:05;2.92;;;1.30;;
41881;SDS011;27562;47.524;12.404;2024-01-25T03:21:31;2.53;;;1.23;;
41881;SDS011;27562;47.524;12.404;2024-01-25T03:23:57;2.42;;;1.40;;
41881;SDS011;27562;47.524;12.404;2024-01-25T03:26:23;2.88;;;1.65;;
41881;SDS011;27562;47.524;12.404;2024-01-25T03:28:48;6.38;;;2.30;;
41881;SDS011;27562;47.524;12.404;2024-01-25T03:31:14;3.78;;;2.17;;
41881;SDS011;27562;47.524;12.404;2024-01-25T03:33:39;3.92;;;2.53;;
41881;SDS011;27562;47.524;12.404;2024-01-25T03:36:05;5.97;;;3.78;;
41881;SDS011;27562;47.524;12.404;2024-01-25T03:38:31;6.93;;;3.45;;
41881;SDS011;27562;47.524;12.404;2024-01-25T03:40:57;3.95;;;2.08;;
41881;SDS011;27562;47.524;12.404;2024-01-25T03:43:27;2.17;;;1.08;;
41881;SDS011;27562;47.524;12.404;2024-01-25T03:45:53;1.45;;;0.85;;
41881;SDS011;27562;47.524;12.404;2024-01-25T03:48:19;2.38;;;1.17;;
41881;SDS011;27562;47.524;12.404;2024-01-25T03:50:44;3.72;;;0.90;;
41881;SDS011;27562;47.524;12.404;2024-01-25T03:53:10;4.45;;;1.00;;
41881;SDS011;27562;47.524;12.404;2024-01-25T03:55:36;2.22;;;1.05;;
41881;SDS011;27562;47.524;12.404;2024-01-25T03:58:02;2.22;;;0.75;;
41881;SDS011;27562;47.524;12.404;2024-01-25T04:00:27;0.73;;;0.50;;
41881;SDS011;27562;47.524;12.404;2024-01-25T04:02:53;2.33;;;0.50;;
41881;SDS011;27562;47.524;12.404;2024-01-25T04:05:19;1.70;;;0.30;;
41881;SDS011;27562;47.524;12.404;2024-01-25T04:07:44;0.73;;;0.35;;
41881;SDS011;27562;47.524;12.404;2024-01-25T04:10:10;0.55;;;0.35;;
41881;SDS011;27562;47.524;12.404;2024-01-25T04:12:36;2.10;;;0.40;;
41881;SDS011;27562;47.524;12.404;2024-01-25T04:15:01;1.05;;;0.30;;
41881;SDS011;27562;47.524;12.404;2024-01-25T04:17:27;2.47;;;0.40;;
41881;SDS011;27562;47.524;12.404;2024-01-25T04:19:53;1.30;;;0.60;;
41881;SDS011;27562;47.524;12.404;2024-01-25T04:22:18;1.85;;;0.38;;
41881;SDS011;27562;47.524;12.404;2024-01-25T04:24:44;1.60;;;0.45;;
41881;SDS011;27562;47.524;12.404;2024-01-25T04:27:13;1.02;;;0.40;;
41881;SDS011;27562;47.524;12.404;2024-01-25T04:29:39;1.38;;;0.68;;
41881;SDS011;27562;47.524;12.404;2024-01-25T04:32:07;13.32;;;5.07;;
41881;SDS011;27562;47.524;12.404;2024-01-25T04:34:33;9.00;;;2.47;;
41881;SDS011;27562;47.524;12.404;2024-01-25T04:36:59;5.45;;;1.60;;
41881;SDS011;27562;47.524;12.404;2024-01-25T04:39:24;2.30;;;1.10;;
41881;SDS011;27562;47.524;12.404;2024-01-25T04:41:50;2.55;;;0.93;;
41881;SDS011;27562;47.524;12.404;2024-01-25T04:44:15;1.67;;;0.60;;
41881;SDS011;27562;47.524;12.404;2024-01-25T04:46:41;1.05;;;0.55;;
41881;SDS011;27562;47.524;12.404;2024-01-25T04:49:07;1.33;;;0.50;;
41881;SDS011;27562;47.524;12.404;2024-01-25T04:51:34;1.17;;;0.38;;
41881;SDS011;27562;47.524;12.404;2024-01-25T04:54:00;0.50;;;0.20;;
41881;SDS011;27562;47.524;12.404;2024-01-25T04:56:25;0.30;;;0.30;;
41881;SDS011;27562;47.524;12.404;2024-01-25T04:58:51;0.40;;;0.30;;
41881;SDS011;27562;47.524;12.404;2024-01-25T05:01:17;3.47;;;1.52;;
41881;SDS011;27562;47.524;12.404;2024-01-25T05:03:43;2.80;;;1.50;;
41881;SDS011;27562;47.524;12.404;2024-01-25T05:06:08;1.40;;;0.50;;
41881;SDS011;27562;47.524;12.404;2024-01-25T05:08:34;1.00;;;0.55;;
41881;SDS011;27562;47.524;12.404;2024-01-25T05:11:00;0.93;;;0.52;;
41881;SDS011;27562;47.524;12.404;2024-01-25T05:13:25;0.98;;;0.50;;
41881;SDS011;27562;47.524;12.404;2024-01-25T05:15:51;1.27;;;0.60;;
41881;SDS011;27562;47.524;12.404;2024-01-25T05:18:17;1.83;;;0.70;;
41881;SDS011;27562;47.524;12.404;2024-01-25T05:20:42;1.50;;;1.10;;
41881;SDS011;27562;47.524;12.404;2024-01-25T05:23:08;2.47;;;1.38;;
41881;SDS011;27562;47.524;12.404;2024-01-25T05:25:34;2.42;;;1.50;;
41881;SDS011;27562;47.524;12.404;2024-01-25T05:27:59;5.03;;;3.10;;
41881;SDS011;27562;47.524;12.404;2024-01-25T05:30:25;7.40;;;3.50;;
41881;SDS011;27562;47.524;12.404;2024-01-25T05:32:52;7.90;;;3.97;;
41881;SDS011;27562;47.524;12.404;2024-01-25T05:35:19;61.60;;;24.90;;
41881;SDS011;27562;47.524;12.404;2024-01-25T05:37:45;52.95;;;24.08;;
41881;SDS011;27562;47.524;12.404;2024-01-25T05:40:11;43.83;;;21.95;;
41881;SDS011;27562;47.524;12.404;2024-01-25T05:42:37;39.50;;;20.00;;
41881;SDS011;27562;47.524;12.404;2024-01-25T05:45:04;46.80;;;21.05;;
41881;SDS011;27562;47.524;12.404;2024-01-25T05:47:30;23.33;;;11.45;;
41881;SDS011;27562;47.524;12.404;2024-01-25T05:49:56;25.73;;;12.40;;
41881;SDS011;27562;47.524;12.404;2024-01-25T05:52:22;8.88;;;5.05;;
41881;SDS011;27562;47.524;12.404;2024-01-25T05:54:49;10.75;;;6.30;;
41881;SDS011;27562;47.524;12.404;2024-01-25T05:57:15;5.85;;;3.15;;
41881;SDS011;27562;47.524;12.404;2024-01-25T05:59:42;3.35;;;2.00;;
41881;SDS011;27562;47.524;12.404;2024-01-25T06:02:07;3.90;;;1.80;;
41881;SDS011;27562;47.524;12.404;2024-01-25T06:04:33;4.30;;;2.53;;
41881;SDS011;27562;47.524;12.404;2024-01-25T06:06:59;3.92;;;2.45;;
41881;SDS011;27562;47.524;12.404;2024-01-25T06:09:25;7.63;;;3.60;;
41881;SDS011;27562;47.524;12.404;2024-01-25T06:11:51;9.80;;;4.57;;
41881;SDS011;27562;47.524;12.404;2024-01-25T06:14:17;8.82;;;4.20;;
41881;SDS011;27562;47.524;12.404;2024-01-25T06:16:43;5.70;;;3.67;;
41881;SDS011;27562;47.524;12.404;2024-01-25T06:19:09;7.97;;;3.85;;
41881;SDS011;27562;47.524;12.404;2024-01-25T06:21:35;12.18;;;4.88;;
41881;SDS011;27562;47.524;12.404;2024-01-25T06:24:02;11.98;;;6.35;;
41881;SDS011;27562;47.524;12.404;2024-01-25T06:26:29;11.93;;;5.95;;
41881;SDS011;27562;47.524;12.404;2024-01-25T06:28:55;11.13;;;5.63;;
41881;SDS011;27562;47.524;12.404;2024-01-25T06:31:21;10.15;;;5.13;;
41881;SDS011;27562;47.524;12.404;2024-01-25T06:33:47;9.82;;;4.70;;
41881;SDS011;27562;47.524;12.404;2024-01-25T06:36:15;6.07;;;3.22;;
41881;SDS011;27562;47.524;12.404;2024-01-25T06:38:41;6.47;;;3.38;;
41881;SDS011;27562;47.524;12.404;2024-01-25T06:41:08;2.47;;;1.30;;
41881;SDS011;27562;47.524;12.404;2024-01-25T06:43:34;4.22;;;1.60;;
41881;SDS011;27562;47.524;12.404;2024-01-25T06:45:59;3.05;;;1.65;;
41881;SDS011;27562;47.524;12.404;2024-01-25T06:48:25;4.55;;;1.73;;
41881;SDS011;27562;47.524;12.404;2024-01-25T06:50:51;4.13;;;2.60;;
41881;SDS011;27562;47.524;12.404;2024-01-25T06:53:17;8.73;;;5.40;;
41881;SDS011;27562;47.524;12.404;2024-01-25T06:55:43;10.27;;;5.03;;
41881;SDS011;27562;47.524;12.404;2024-01-25T06:58:09;9.68;;;5.43;;
41881;SDS011;27562;47.524;12.404;2024-01-25T07:00:35;8.95;;;4.70;;
41881;SDS011;27562;47.524;12.404;2024-01-25T07:03:00;8.25;;;4.72;;
41881;SDS011;27562;47.524;12.404;2024-01-25T07:05:26;9.05;;;4.20;;
41881;SDS011;27562;47.524;12.404;2024-01-25T07:07:52;5.97;;;3.40;;
41881;SDS011;27562;47.524;12.404;2024-01-25T07:10:18;6.00;;;3.60;;
41881;SDS011;27562;47.524;12.404;2024-01-25T07:12:43;6.10;;;3.80;;
41881;SDS011;27562;47.524;12.404;2024-01-25T07:15:09;10.00;;;5.57;;
41881;SDS011;27562;47.524;12.404;2024-01-25T07:17:35;10.15;;;6.32;;
41881;SDS011;27562;47.524;12.404;2024-01-25T07:20:01;8.05;;;5.25;;
41881;SDS011;27562;47.524;12.404;2024-01-25T07:22:26;6.15;;;3.78;;
41881;SDS011;27562;47.524;12.404;2024-01-25T07:24:52;6.95;;;3.78;;
41881;SDS011;27562;47.524;12.404;2024-01-25T07:27:18;4.97;;;2.60;;
41881;SDS011;27562;47.524;12.404;2024-01-25T07:29:44;6.60;;;3.53;;
41881;SDS011;27562;47.524;12.404;2024-01-25T07:32:10;6.97;;;3.95;;
41881;SDS011;27562;47.524;12.404;2024-01-25T07:34:36;5.03;;;3.50;;
41881;SDS011;27562;47.524;12.404;2024-01-25T07:37:03;8.88;;;4.70;;
41881;SDS011;27562;47.524;12.404;2024-01-25T07:39:28;8.82;;;4.72;;
41881;SDS011;27562;47.524;12.404;2024-01-25T07:41:54;9.25;;;5.50;;
41881;SDS011;27562;47.524;12.404;2024-01-25T07:44:20;6.43;;;4.50;;
41881;SDS011;27562;47.524;12.404;2024-01-25T07:46:46;6.90;;;4.10;;
41881;SDS011;27562;47.524;12.404;2024-01-25T07:49:12;5.32;;;3.03;;
41881;SDS011;27562;47.524;12.404;2024-01-25T07:51:38;3.78;;;2.00;;
41881;SDS011;27562;47.524;12.404;2024-01-25T07:54:04;4.90;;;2.25;;
41881;SDS011;27562;47.524;12.404;2024-01-25T07:56:29;5.72;;;2.97;;
41881;SDS011;27562;47.524;12.404;2024-01-25T07:58:56;7.15;;;5.30;;
41881;SDS011;27562;47.524;12.404;2024-01-25T08:01:24;6.25;;;4.55;;
41881;SDS011;27562;47.524;12.404;2024-01-25T08:03:50;5.70;;;3.67;;
41881;SDS011;27562;47.524;12.404;2024-01-25T08:06:16;7.28;;;4.90;;
41881;SDS011;27562;47.524;12.404;2024-01-25T08:08:41;5.40;;;3.13;;
41881;SDS011;27562;47.524;12.404;2024-01-25T08:11:07;4.85;;;2.75;;
41881;SDS011;27562;47.524;12.404;2024-01-25T08:13:33;6.70;;;3.53;;
41881;SDS011;27562;47.524;12.404;2024-01-25T08:15:59;6.97;;;4.50;;
41881;SDS011;27562;47.524;12.404;2024-01-25T08:18:25;4.10;;;2.70;;
41881;SDS011;27562;47.524;12.404;2024-01-25T08:20:54;4.90;;;3.00;;
41881;SDS011;27562;47.524;12.404;2024-01-25T08:23:20;4.78;;;2.40;;
41881;SDS011;27562;47.524;12.404;2024-01-25T08:25:45;5.68;;;3.70;;
41881;SDS011;27562;47.524;12.404;2024-01-25T08:28:11;5.80;;;3.80;;
41881;SDS011;27562;47.524;12.404;2024-01-25T08:30:37;7.95;;;4.90;;
41881;SDS011;27562;47.524;12.404;2024-01-25T08:33:03;6.03;;;3.53;;
41881;SDS011;27562;47.524;12.404;2024-01-25T08:35:29;6.60;;;3.95;;
41881;SDS011;27562;47.524;12.404;2024-01-25T08:37:55;6.20;;;3.35;;
41881;SDS011;27562;47.524;12.404;2024-01-25T08:40:21;5.93;;;3.60;;
41881;SDS011;27562;47.524;12.404;2024-01-25T08:42:47;4.93;;;2.90;;
41881;SDS011;27562;47.524;12.404;2024-01-25T08:45:13;4.35;;;2.72;;
41881;SDS011;27562;47.524;12.404;2024-01-25T08:47:38;4.60;;;2.50;;
41881;SDS011;27562;47.524;12.404;2024-01-25T08:50:04;4.20;;;2.40;;
41881;SDS011;27562;47.524;12.404;2024-01-25T08:52:35;6.53;;;3.72;;
41881;SDS011;27562;47.524;12.404;2024-01-25T08:55:06;5.32;;;3.40;;
41881;SDS011;27562;47.524;12.404;2024-01-25T08:57:32;5.57;;;3.20;;
41881;SDS011;27562;47.524;12.404;2024-01-25T08:59:58;6.78;;;3.60;;
41881;SDS011;27562;47.524;12.404;2024-01-25T09:02:26;5.82;;;3.42;;
41881;SDS011;27562;47.524;12.404;2024-01-25T09:04:54;10.05;;;5.28;;
41881;SDS011;27562;47.524;12.404;2024-01-25T09:07:20;9.55;;;4.63;;
41881;SDS011;27562;47.524;12.404;2024-01-25T09:09:46;5.07;;;3.03;;
41881;SDS011;27562;47.524;12.404;2024-01-25T09:12:12;2.97;;;1.70;;
41881;SDS011;27562;47.524;12.404;2024-01-25T09:14:38;2.30;;;1.52;;
41881;SDS011;27562;47.524;12.404;2024-01-25T09:17:04;2.92;;;1.35;;
41881;SDS011;27562;47.524;12.404;2024-01-25T09:19:30;3.58;;;1.58;;
41881;SDS011;27562;47.524;12.404;2024-01-25T09:21:56;5.13;;;2.45;;
41881;SDS011;27562;47.524;12.404;2024-01-25T09:24:25;5.43;;;2.65;;
41881;SDS011;27562;47.524;12.404;2024-01-25T09:26:51;6.25;;;2.85;;
41881;SDS011;27562;47.524;12.404;2024-01-25T09:29:16;4.70;;;2.85;;
41881;SDS011;27562;47.524;12.404;2024-01-25T09:31:42;5.40;;;3.10;;
41881;SDS011;27562;47.524;12.404;2024-01-25T09:34:08;4.82;;;2.63;;
41881;SDS011;27562;47.524;12.404;2024-01-25T09:36:33;4.25;;;2.55;;
41881;SDS011;27562;47.524;12.404;2024-01-25T09:38:59;6.20;;;3.25;;
41881;SDS011;27562;47.524;12.404;2024-01-25T09:41:24;4.85;;;2.58;;
41881;SDS011;27562;47.524;12.404;2024-01-25T09:43:50;6.38;;;1.88;;
41881;SDS011;27562;47.524;12.404;2024-01-25T09:46:16;4.97;;;2.83;;
41881;SDS011;27562;47.524;12.404;2024-01-25T09:48:42;2.63;;;1.90;;
41881;SDS011;27562;47.524;12.404;2024-01-25T09:51:11;2.20;;;1.40;;
41881;SDS011;27562;47.524;12.404;2024-01-25T09:53:38;2.28;;;1.55;;
41881;SDS011;27562;47.524;12.404;2024-01-25T09:56:06;2.35;;;1.17;;
41881;SDS011;27562;47.524;12.404;2024-01-25T09:58:37;2.15;;;1.10;;
41881;SDS011;27562;47.524;12.404;2024-01-25T10:03:32;2.90;;;1.60;;
41881;SDS011;27562;47.524;12.404;2024-01-25T10:06:00;3.13;;;1.48;;
41881;SDS011;27562;47.524;12.404;2024-01-25T10:08:25;3.25;;;1.75;;
41881;SDS011;27562;47.524;12.404;2024-01-25T10:10:51;3.60;;;2.60;;
41881;SDS011;27562;47.524;12.404;2024-01-25T10:13:18;5.22;;;2.97;;
41881;SDS011;27562;47.524;12.404;2024-01-25T10:15:45;3.42;;;2.03;;
41881;SDS011;27562;47.524;12.404;2024-01-25T10:18:12;2.58;;;1.85;;
41881;SDS011;27562;47.524;12.404;2024-01-25T10:20:44;2.10;;;1.23;;
41881;SDS011;27562;47.524;12.404;2024-01-25T10:23:09;3.33;;;1.65;;
41881;SDS011;27562;47.524;12.404;2024-01-25T10:25:35;2.72;;;1.75;;
41881;SDS011;27562;47.524;12.404;2024-01-25T10:28:02;3.15;;;1.63;;
41881;SDS011;27562;47.524;12.404;2024-01-25T10:30:32;3.92;;;2.03;;
41881;SDS011;27562;47.524;12.404;2024-01-25T10:32:59;3.13;;;1.40;;
41881;SDS011;27562;47.524;12.404;2024-01-25T10:35:26;2.42;;;1.20;;
41881;SDS011;27562;47.524;12.404;2024-01-25T10:37:52;2.50;;;1.40;;
41881;SDS011;27562;47.524;12.404;2024-01-25T10:40:19;3.35;;;1.42;;
41881;SDS011;27562;47.524;12.404;2024-01-25T10:42:45;3.83;;;1.88;;
41881;SDS011;27562;47.524;12.404;2024-01-25T10:45:11;3.53;;;1.70;;
41881;SDS011;27562;47.524;12.404;2024-01-25T10:47:37;3.03;;;1.55;;
41881;SDS011;27562;47.524;12.404;2024-01-25T10:50:06;2.33;;;1.42;;
41881;SDS011;27562;47.524;12.404;2024-01-25T10:52:35;2.67;;;1.52;;
41881;SDS011;27562;47.524;12.404;2024-01-25T10:55:04;2.92;;;1.63;;
41881;SDS011;27562;47.524;12.404;2024-01-25T10:57:36;2.85;;;1.70;;
41881;SDS011;27562;47.524;12.404;2024-01-25T11:00:06;3.88;;;1.80;;
41881;SDS011;27562;47.524;12.404;2024-01-25T11:02:35;3.42;;;1.92;;
41881;SDS011;27562;47.524;12.404;2024-01-25T11:05:01;2.67;;;1.63;;
41881;SDS011;27562;47.524;12.404;2024-01-25T11:07:28;5.47;;;3.00;;
41881;SDS011;27562;47.524;12.404;2024-01-25T11:09:54;4.97;;;3.03;;
41881;SDS011;27562;47.524;12.404;2024-01-25T11:12:20;4.45;;;2.47;;
41881;SDS011;27562;47.524;12.404;2024-01-25T11:14:53;5.60;;;2.83;;
41881;SDS011;27562;47.524;12.404;2024-01-25T11:17:20;5.95;;;3.03;;
41881;SDS011;27562;47.524;12.404;2024-01-25T11:19:50;4.30;;;2.80;;
41881;SDS011;27562;47.524;12.404;2024-01-25T11:22:16;3.22;;;2.08;;
41881;SDS011;27562;47.524;12.404;2024-01-25T11:24:42;3.83;;;2.42;;
41881;SDS011;27562;47.524;12.404;2024-01-25T11:27:08;3.78;;;2.13;;
41881;SDS011;27562;47.524;12.404;2024-01-25T11:29:38;5.55;;;2.42;;
41881;SDS011;27562;47.524;12.404;2024-01-25T11:32:05;5.05;;;2.65;;
41881;SDS011;27562;47.524;12.404;2024-01-25T11:34:31;4.55;;;2.50;;
41881;SDS011;27562;47.524;12.404;2024-01-25T11:36:56;4.43;;;2.72;;
41881;SDS011;27562;47.524;12.404;2024-01-25T11:39:25;4.60;;;2.50;;
41881;SDS011;27562;47.524;12.404;2024-01-25T11:41:51;5.05;;;2.80;;
41881;SDS011;27562;47.524;12.404;2024-01-25T11:44:17;5.43;;;2.20;;
41881;SDS011;27562;47.524;12.404;2024-01-25T11:46:43;5.13;;;2.67;;
41881;SDS011;27562;47.524;12.404;2024-01-25T11:49:09;3.72;;;2.63;;
41881;SDS011;27562;47.524;12.404;2024-01-25T11:51:34;4.10;;;2.50;;
41881;SDS011;27562;47.524;12.404;2024-01-25T11:54:00;5.25;;;2.15;;
41881;SDS011;27562;47.524;12.404;2024-01-25T11:56:28;3.38;;;1.90;;
41881;SDS011;27562;47.524;12.404;2024-01-25T11:58:56;3.08;;;1.60;;
41881;SDS011;27562;47.524;12.404;2024-01-25T12:01:23;6.57;;;2.10;;
41881;SDS011;27562;47.524;12.404;2024-01-25T12:03:50;2.97;;;1.50;;
41881;SDS011;27562;47.524;12.404;2024-01-25T12:06:16;4.07;;;1.83;;
41881;SDS011;27562;47.524;12.404;2024-01-25T12:08:43;3.58;;;1.55;;
41881;SDS011;27562;47.524;12.404;2024-01-25T12:11:10;5.68;;;2.45;;
41881;SDS011;27562;47.524;12.404;2024-01-25T12:13:40;4.45;;;1.77;;
41881;SDS011;27562;47.524;12.404;2024-01-25T12:16:07;4.40;;;2.08;;
41881;SDS011;27562;47.524;12.404;2024-01-25T12:18:34;3.20;;;1.77;;
41881;SDS011;27562;47.524;12.404;2024-01-25T12:21:03;3.70;;;2.00;;
41881;SDS011;27562;47.524;12.404;2024-01-25T12:23:39;4.32;;;1.70;;
41881;SDS011;27562;47.524;12.404;2024-01-25T12:26:06;2.35;;;1.40;;
41881;SDS011;27562;47.524;12.404;2024-01-25T12:28:34;5.75;;;2.00;;
41881;SDS011;27562;47.524;12.404;2024-01-25T12:31:00;2.85;;;1.33;;
41881;SDS011;27562;47.524;12.404;2024-01-25T12:33:28;4.18;;;1.63;;
41881;SDS011;27562;47.524;12.404;2024-01-25T12:35:54;5.05;;;1.45;;
41881;SDS011;27562;47.524;12.404;2024-01-25T12:38:21;3.17;;;1.75;;
41881;SDS011;27562;47.524;12.404;2024-01-25T12:40:50;2.40;;;1.27;;
41881;SDS011;27562;47.524;12.404;2024-01-25T12:43:17;4.38;;;1.38;;
41881;SDS011;27562;47.524;12.404;2024-01-25T12:45:43;4.85;;;1.38;;
41881;SDS011;27562;47.524;12.404;2024-01-25T12:48:09;3.13;;;1.90;;
41881;SDS011;27562;47.524;12.404;2024-01-25T12:50:36;2.92;;;1.40;;
41881;SDS011;27562;47.524;12.404;2024-01-25T12:53:02;5.72;;;1.58;;
41881;SDS011;27562;47.524;12.404;2024-01-25T12:55:28;5.40;;;2.00;;
41881;SDS011;27562;47.524;12.404;2024-01-25T12:57:54;5.03;;;1.50;;
41881;SDS011;27562;47.524;12.404;2024-01-25T13:00:21;2.55;;;1.17;;
41881;SDS011;27562;47.524;12.404;2024-01-25T13:02:47;6.53;;;1.42;;
41881;SDS011;27562;47.524;12.404;2024-01-25T13:05:14;3.05;;;1.40;;
41881;SDS011;27562;47.524;12.404;2024-01-25T13:07:39;4.10;;;1.10;;
41881;SDS011;27562;47.524;12.404;2024-01-25T13:10:06;5.15;;;1.38;;
41881;SDS011;27562;47.524;12.404;2024-01-25T13:12:33;3.25;;;1.15;;
41881;SDS011;27562;47.524;12.404;2024-01-25T13:14:59;8.05;;;1.73;;
41881;SDS011;27562;47.524;12.404;2024-01-25T13:17:25;3.28;;;1.50;;
41881;SDS011;27562;47.524;12.404;2024-01-25T13:19:52;3.90;;;1.42;;
41881;SDS011;27562;47.524;12.404;2024-01-25T13:22:18;3.00;;;1.40;;
41881;SDS011;27562;47.524;12.404;2024-01-25T13:24:46;2.90;;;1.38;;
41881;SDS011;27562;47.524;12.404;2024-01-25T13:27:12;3.83;;;1.83;;
41881;SDS011;27562;47.524;12.404;2024-01-25T13:29:38;3.70;;;1.88;;
41881;SDS011;27562;47.524;12.404;2024-01-25T13:32:03;4.50;;;1.70;;
41881;SDS011;27562;47.524;12.404;2024-01-25T13:34:29;4.47;;;1.90;;
41881;SDS011;27562;47.524;12.404;2024-01-25T13:36:55;4.50;;;2.10;;
41881;SDS011;27562;47.524;12.404;2024-01-25T13:39:21;4.88;;;2.03;;
41881;SDS011;27562;47.524;12.404;2024-01-25T13:41:47;2.85;;;1.63;;
41881;SDS011;27562;47.524;12.404;2024-01-25T13:44:13;6.10;;;2.25;;
41881;SDS011;27562;47.524;12.404;2024-01-25T13:46:39;6.68;;;1.70;;
41881;SDS011;27562;47.524;12.404;2024-01-25T13:49:05;4.45;;;1.58;;
41881;SDS011;27562;47.524;12.404;2024-01-25T13:51:31;2.83;;;1.40;;
41881;SDS011;27562;47.524;12.404;2024-01-25T13:53:56;6.88;;;1.75;;
41881;SDS011;27562;47.524;12.404;2024-01-25T13:56:22;4.07;;;1.33;;
41881;SDS011;27562;47.524;12.404;2024-01-25T13:58:48;3.90;;;0.98;;
41881;SDS011;27562;47.524;12.404;2024-01-25T14:01:13;5.22;;;0.98;;
41881;SDS011;27562;47.524;12.404;2024-01-25T14:03:39;4.30;;;0.90;;
41881;SDS011;27562;47.524;12.404;2024-01-25T14:06:05;1.85;;;0.68;;
41881;SDS011;27562;47.524;12.404;2024-01-25T14:08:34;4.88;;;1.17;;
41881;SDS011;27562;47.524;12.404;2024-01-25T14:11:03;2.92;;;1.02;;
41881;SDS011;27562;47.524;12.404;2024-01-25T14:13:31;5.35;;;1.00;;
41881;SDS011;27562;47.524;12.404;2024-01-25T14:15:57;2.40;;;0.90;;
41881;SDS011;27562;47.524;12.404;2024-01-25T14:18:24;3.70;;;0.88;;
41881;SDS011;27562;47.524;12.404;2024-01-25T14:20:52;2.35;;;1.02;;
41881;SDS011;27562;47.524;12.404;2024-01-25T14:23:18;3.42;;;1.10;;
41881;SDS011;27562;47.524;12.404;2024-01-25T14:25:43;2.72;;;1.00;;
41881;SDS011;27562;47.524;12.404;2024-01-25T14:28:10;2.95;;;1.25;;
41881;SDS011;27562;47.524;12.404;2024-01-25T14:30:36;4.03;;;1.30;;
41881;SDS011;27562;47.524;12.404;2024-01-25T14:33:01;4.63;;;2.17;;